sensor_id;sensor_type;location;lat;lon;timestamp;P1;durP1;ratioP1;P2;durP2;ratioP2
37943;SDS011;23767;42.024;23.086;2023-09-19T00:01:07;7.57;;;6.18;;
37943;SDS011;23767;42.024;23.086;2023-09-19T00:03:37;9.30;;;6.70;;
37943;SDS011;23767;42.024;23.086;2023-09-19T00:06:04;8.65;;;6.13;;
37943;SDS011;23767;42.024;23.086;2023-09-19T00:08:32;7.35;;;6.20;;
37943;SDS011;23767;42.024;23.086;2023-09-19T00:10:58;7.55;;;6.22;;
37943;SDS011;23767;42.024;23.086;2023-09-19T00:13:30;9.43;;;6.03;;
37943;SDS011;23767;42.024;23.086;2023-09-19T00:15:57;9.20;;;6.78;;
37943;SDS011;23767;42.024;23.086;2023-09-19T00:18:24;8.77;;;6.43;;
37943;SDS011;23767;42.024;23.086;2023-09-19T00:21:00;7.47;;;5.93;;
37943;SDS011;23767;42.024;23.086;2023-09-19T00:25:58;8.57;;;6.47;;
37943;SDS011;23767;42.024;23.086;2023-09-19T00:28:25;6.85;;;6.15;;
37943;SDS011;23767;42.024;23.086;2023-09-19T00:30:51;9.60;;;6.70;;
37943;SDS011;23767;42.024;23.086;2023-09-19T00:33:19;8.35;;;5.97;;
37943;SDS011;23767;42.024;23.086;2023-09-19T00:38:14;7.03;;;5.35;;
37943;SDS011;23767;42.024;23.086;2023-09-19T00:40:46;7.05;;;5.78;;
37943;SDS011;23767;42.024;23.086;2023-09-19T00:43:13;7.72;;;5.53;;
37943;SDS011;23767;42.024;23.086;2023-09-19T00:45:42;16.67;;;6.90;;
37943;SDS011;23767;42.024;23.086;2023-09-19T00:48:08;7.15;;;6.15;;
37943;SDS011;23767;42.024;23.086;2023-09-19T00:50:35;7.35;;;6.30;;
37943;SDS011;23767;42.024;23.086;2023-09-19T00:53:01;7.53;;;6.68;;
37943;SDS011;23767;42.024;23.086;2023-09-19T00:55:35;8.32;;;6.68;;
37943;SDS011;23767;42.024;23.086;2023-09-19T00:58:06;8.40;;;5.75;;
37943;SDS011;23767;42.024;23.086;2023-09-19T01:00:35;7.20;;;6.13;;
37943;SDS011;23767;42.024;23.086;2023-09-19T01:03:01;7.32;;;5.63;;
37943;SDS011;23767;42.024;23.086;2023-09-19T01:05:28;8.43;;;6.93;;
37943;SDS011;23767;42.024;23.086;2023-09-19T01:07:54;7.88;;;5.68;;
37943;SDS011;23767;42.024;23.086;2023-09-19T01:10:21;7.43;;;6.20;;
37943;SDS011;23767;42.024;23.086;2023-09-19T01:18:00;8.88;;;7.13;;
37943;SDS011;23767;42.024;23.086;2023-09-19T01:21:05;7.47;;;6.68;;
37943;SDS011;23767;42.024;23.086;2023-09-19T01:23:27;7.43;;;6.63;;
37943;SDS011;23767;42.024;23.086;2023-09-19T01:26:06;7.20;;;6.45;;
37943;SDS011;23767;42.024;23.086;2023-09-19T01:31:06;10.18;;;6.43;;
37943;SDS011;23767;42.024;23.086;2023-09-19T01:33:53;9.20;;;6.28;;
37943;SDS011;23767;42.024;23.086;2023-09-19T01:36:24;8.65;;;6.40;;
37943;SDS011;23767;42.024;23.086;2023-09-19T01:38:50;7.47;;;6.40;;
37943;SDS011;23767;42.024;23.086;2023-09-19T01:41:17;13.27;;;6.57;;
37943;SDS011;23767;42.024;23.086;2023-09-19T01:43:46;8.00;;;6.28;;
37943;SDS011;23767;42.024;23.086;2023-09-19T01:46:21;7.53;;;6.20;;
37943;SDS011;23767;42.024;23.086;2023-09-19T01:49:34;7.78;;;6.10;;
37943;SDS011;23767;42.024;23.086;2023-09-19T01:51:46;10.45;;;6.88;;
37943;SDS011;23767;42.024;23.086;2023-09-19T01:54:12;10.07;;;7.10;;
37943;SDS011;23767;42.024;23.086;2023-09-19T01:59:13;7.38;;;6.15;;
37943;SDS011;23767;42.024;23.086;2023-09-19T02:01:39;8.70;;;6.63;;
37943;SDS011;23767;42.024;23.086;2023-09-19T02:04:07;8.13;;;6.15;;
37943;SDS011;23767;42.024;23.086;2023-09-19T02:06:33;10.27;;;6.38;;
37943;SDS011;23767;42.024;23.086;2023-09-19T02:08:59;8.07;;;6.60;;
37943;SDS011;23767;42.024;23.086;2023-09-19T02:11:25;8.90;;;6.60;;
37943;SDS011;23767;42.024;23.086;2023-09-19T02:13:51;8.27;;;6.93;;
37943;SDS011;23767;42.024;23.086;2023-09-19T02:16:19;7.70;;;6.65;;
37943;SDS011;23767;42.024;23.086;2023-09-19T02:18:47;7.90;;;6.95;;
37943;SDS011;23767;42.024;23.086;2023-09-19T02:21:14;7.50;;;6.40;;
37943;SDS011;23767;42.024;23.086;2023-09-19T02:23:41;9.57;;;6.55;;
37943;SDS011;23767;42.024;23.086;2023-09-19T02:26:07;7.82;;;6.63;;
37943;SDS011;23767;42.024;23.086;2023-09-19T02:28:33;7.78;;;6.60;;
37943;SDS011;23767;42.024;23.086;2023-09-19T02:30:59;7.30;;;5.88;;
37943;SDS011;23767;42.024;23.086;2023-09-19T02:33:25;9.00;;;5.88;;
37943;SDS011;23767;42.024;23.086;2023-09-19T02:35:57;7.43;;;6.53;;
37943;SDS011;23767;42.024;23.086;2023-09-19T02:38:23;7.75;;;6.30;;
37943;SDS011;23767;42.024;23.086;2023-09-19T02:40:50;7.40;;;6.10;;
37943;SDS011;23767;42.024;23.086;2023-09-19T02:43:17;8.77;;;5.75;;
37943;SDS011;23767;42.024;23.086;2023-09-19T02:45:44;10.35;;;6.45;;
37943;SDS011;23767;42.024;23.086;2023-09-19T02:48:11;9.75;;;6.80;;
37943;SDS011;23767;42.024;23.086;2023-09-19T02:50:37;7.57;;;6.78;;
37943;SDS011;23767;42.024;23.086;2023-09-19T02:53:05;8.63;;;6.20;;
37943;SDS011;23767;42.024;23.086;2023-09-19T02:55:32;9.18;;;7.45;;
37943;SDS011;23767;42.024;23.086;2023-09-19T02:57:59;10.30;;;7.63;;
37943;SDS011;23767;42.024;23.086;2023-09-19T03:00:26;12.05;;;7.47;;
37943;SDS011;23767;42.024;23.086;2023-09-19T03:02:54;9.73;;;7.72;;
37943;SDS011;23767;42.024;23.086;2023-09-19T03:05:20;8.65;;;7.45;;
37943;SDS011;23767;42.024;23.086;2023-09-19T03:07:48;12.52;;;8.75;;
37943;SDS011;23767;42.024;23.086;2023-09-19T03:10:16;9.10;;;7.72;;
37943;SDS011;23767;42.024;23.086;2023-09-19T03:12:42;9.65;;;7.78;;
37943;SDS011;23767;42.024;23.086;2023-09-19T03:15:08;11.80;;;8.52;;
37943;SDS011;23767;42.024;23.086;2023-09-19T03:17:35;9.85;;;8.25;;
37943;SDS011;23767;42.024;23.086;2023-09-19T03:20:02;9.75;;;7.45;;
37943;SDS011;23767;42.024;23.086;2023-09-19T03:22:29;8.80;;;6.90;;
37943;SDS011;23767;42.024;23.086;2023-09-19T03:24:56;8.65;;;7.28;;
37943;SDS011;23767;42.024;23.086;2023-09-19T03:27:22;10.07;;;6.80;;
37943;SDS011;23767;42.024;23.086;2023-09-19T03:29:48;8.00;;;6.72;;
37943;SDS011;23767;42.024;23.086;2023-09-19T03:32:14;9.05;;;7.13;;
37943;SDS011;23767;42.024;23.086;2023-09-19T03:34:40;11.18;;;7.50;;
37943;SDS011;23767;42.024;23.086;2023-09-19T03:37:11;9.82;;;7.85;;
37943;SDS011;23767;42.024;23.086;2023-09-19T03:39:37;8.98;;;7.55;;
37943;SDS011;23767;42.024;23.086;2023-09-19T03:42:03;8.48;;;7.50;;
37943;SDS011;23767;42.024;23.086;2023-09-19T03:44:30;9.27;;;7.57;;
37943;SDS011;23767;42.024;23.086;2023-09-19T03:46:56;9.27;;;7.40;;
37943;SDS011;23767;42.024;23.086;2023-09-19T03:49:22;10.82;;;8.68;;
37943;SDS011;23767;42.024;23.086;2023-09-19T03:51:49;9.52;;;8.57;;
37943;SDS011;23767;42.024;23.086;2023-09-19T03:54:14;11.50;;;8.00;;
37943;SDS011;23767;42.024;23.086;2023-09-19T03:56:42;13.35;;;8.43;;
37943;SDS011;23767;42.024;23.086;2023-09-19T03:59:08;10.48;;;8.68;;
37943;SDS011;23767;42.024;23.086;2023-09-19T04:01:35;12.02;;;8.65;;
37943;SDS011;23767;42.024;23.086;2023-09-19T04:04:01;11.07;;;8.95;;
37943;SDS011;23767;42.024;23.086;2023-09-19T04:06:36;9.35;;;7.75;;
37943;SDS011;23767;42.024;23.086;2023-09-19T04:09:02;11.02;;;7.47;;
37943;SDS011;23767;42.024;23.086;2023-09-19T04:11:31;8.93;;;7.28;;
37943;SDS011;23767;42.024;23.086;2023-09-19T04:13:58;9.05;;;7.57;;
37943;SDS011;23767;42.024;23.086;2023-09-19T04:16:24;9.55;;;7.80;;
37943;SDS011;23767;42.024;23.086;2023-09-19T04:18:50;9.88;;;7.45;;
37943;SDS011;23767;42.024;23.086;2023-09-19T04:21:16;9.55;;;8.02;;
37943;SDS011;23767;42.024;23.086;2023-09-19T04:23:44;9.07;;;7.03;;
37943;SDS011;23767;42.024;23.086;2023-09-19T04:26:10;10.60;;;7.93;;
37943;SDS011;23767;42.024;23.086;2023-09-19T04:28:36;10.30;;;7.95;;
37943;SDS011;23767;42.024;23.086;2023-09-19T04:31:03;8.57;;;7.63;;
37943;SDS011;23767;42.024;23.086;2023-09-19T04:33:29;9.63;;;7.68;;
37943;SDS011;23767;42.024;23.086;2023-09-19T04:35:55;8.95;;;7.53;;
37943;SDS011;23767;42.024;23.086;2023-09-19T04:38:22;10.68;;;8.00;;
37943;SDS011;23767;42.024;23.086;2023-09-19T04:40:48;10.75;;;8.10;;
37943;SDS011;23767;42.024;23.086;2023-09-19T04:43:14;10.18;;;7.82;;
37943;SDS011;23767;42.024;23.086;2023-09-19T04:45:40;10.55;;;8.40;;
37943;SDS011;23767;42.024;23.086;2023-09-19T04:48:06;8.15;;;7.30;;
37943;SDS011;23767;42.024;23.086;2023-09-19T04:50:33;10.07;;;7.50;;
37943;SDS011;23767;42.024;23.086;2023-09-19T04:52:59;11.07;;;7.18;;
37943;SDS011;23767;42.024;23.086;2023-09-19T04:55:26;12.75;;;7.38;;
37943;SDS011;23767;42.024;23.086;2023-09-19T04:57:52;9.68;;;7.25;;
37943;SDS011;23767;42.024;23.086;2023-09-19T05:02:55;10.75;;;6.85;;
37943;SDS011;23767;42.024;23.086;2023-09-19T05:05:22;14.93;;;8.10;;
37943;SDS011;23767;42.024;23.086;2023-09-19T05:07:49;10.50;;;7.75;;
37943;SDS011;23767;42.024;23.086;2023-09-19T05:10:16;13.00;;;7.70;;
37943;SDS011;23767;42.024;23.086;2023-09-19T05:12:43;10.02;;;8.38;;
37943;SDS011;23767;42.024;23.086;2023-09-19T05:15:12;11.95;;;8.32;;
37943;SDS011;23767;42.024;23.086;2023-09-19T05:17:51;14.60;;;8.38;;
37943;SDS011;23767;42.024;23.086;2023-09-19T05:20:19;13.52;;;7.70;;
37943;SDS011;23767;42.024;23.086;2023-09-19T05:25:26;11.05;;;8.13;;
37943;SDS011;23767;42.024;23.086;2023-09-19T05:27:54;13.18;;;7.63;;
37943;SDS011;23767;42.024;23.086;2023-09-19T05:30:21;10.00;;;7.75;;
37943;SDS011;23767;42.024;23.086;2023-09-19T05:32:47;15.15;;;8.57;;
37943;SDS011;23767;42.024;23.086;2023-09-19T05:35:13;12.60;;;8.65;;
37943;SDS011;23767;42.024;23.086;2023-09-19T05:37:39;11.18;;;7.95;;
37943;SDS011;23767;42.024;23.086;2023-09-19T05:40:05;16.67;;;8.25;;
37943;SDS011;23767;42.024;23.086;2023-09-19T05:42:37;13.35;;;7.78;;
37943;SDS011;23767;42.024;23.086;2023-09-19T05:45:04;12.52;;;7.45;;
37943;SDS011;23767;42.024;23.086;2023-09-19T05:47:31;14.48;;;7.90;;
37943;SDS011;23767;42.024;23.086;2023-09-19T05:49:57;12.00;;;8.23;;
37943;SDS011;23767;42.024;23.086;2023-09-19T05:52:24;13.65;;;8.57;;
37943;SDS011;23767;42.024;23.086;2023-09-19T05:54:50;11.05;;;8.40;;
37943;SDS011;23767;42.024;23.086;2023-09-19T05:57:16;11.75;;;8.73;;
37943;SDS011;23767;42.024;23.086;2023-09-19T05:59:42;12.30;;;8.00;;
37943;SDS011;23767;42.024;23.086;2023-09-19T06:02:08;14.23;;;8.27;;
37943;SDS011;23767;42.024;23.086;2023-09-19T06:04:36;13.35;;;8.40;;
37943;SDS011;23767;42.024;23.086;2023-09-19T06:07:05;12.02;;;9.20;;
37943;SDS011;23767;42.024;23.086;2023-09-19T06:09:31;15.18;;;8.88;;
37943;SDS011;23767;42.024;23.086;2023-09-19T06:11:58;12.77;;;8.43;;
37943;SDS011;23767;42.024;23.086;2023-09-19T06:14:28;10.38;;;7.65;;
37943;SDS011;23767;42.024;23.086;2023-09-19T06:16:55;13.07;;;8.10;;
37943;SDS011;23767;42.024;23.086;2023-09-19T06:19:21;8.95;;;7.20;;
37943;SDS011;23767;42.024;23.086;2023-09-19T06:21:48;9.02;;;7.60;;
37943;SDS011;23767;42.024;23.086;2023-09-19T06:24:14;12.07;;;8.25;;
37943;SDS011;23767;42.024;23.086;2023-09-19T06:26:40;13.93;;;7.97;;
37943;SDS011;23767;42.024;23.086;2023-09-19T06:29:09;10.95;;;7.95;;
37943;SDS011;23767;42.024;23.086;2023-09-19T06:31:35;11.95;;;7.85;;
37943;SDS011;23767;42.024;23.086;2023-09-19T06:34:01;11.40;;;7.95;;
37943;SDS011;23767;42.024;23.086;2023-09-19T06:36:28;12.30;;;7.25;;
37943;SDS011;23767;42.024;23.086;2023-09-19T06:38:54;10.63;;;6.72;;
37943;SDS011;23767;42.024;23.086;2023-09-19T06:41:20;10.23;;;6.28;;
37943;SDS011;23767;42.024;23.086;2023-09-19T06:43:49;11.90;;;6.95;;
37943;SDS011;23767;42.024;23.086;2023-09-19T06:46:18;11.13;;;6.90;;
37943;SDS011;23767;42.024;23.086;2023-09-19T06:48:44;12.82;;;7.57;;
37943;SDS011;23767;42.024;23.086;2023-09-19T06:51:12;14.57;;;7.15;;
37943;SDS011;23767;42.024;23.086;2023-09-19T06:53:40;11.35;;;6.82;;
37943;SDS011;23767;42.024;23.086;2023-09-19T06:56:06;10.18;;;6.70;;
37943;SDS011;23767;42.024;23.086;2023-09-19T06:58:32;10.50;;;6.88;;
37943;SDS011;23767;42.024;23.086;2023-09-19T07:00:59;14.55;;;6.78;;
37943;SDS011;23767;42.024;23.086;2023-09-19T07:03:26;11.00;;;5.90;;
37943;SDS011;23767;42.024;23.086;2023-09-19T07:05:53;13.00;;;6.63;;
37943;SDS011;23767;42.024;23.086;2023-09-19T07:08:21;10.20;;;6.45;;
37943;SDS011;23767;42.024;23.086;2023-09-19T07:10:47;11.10;;;6.75;;
37943;SDS011;23767;42.024;23.086;2023-09-19T07:13:13;10.90;;;6.38;;
37943;SDS011;23767;42.024;23.086;2023-09-19T07:15:42;8.15;;;5.80;;
37943;SDS011;23767;42.024;23.086;2023-09-19T07:18:12;10.38;;;6.50;;
37943;SDS011;23767;42.024;23.086;2023-09-19T07:20:39;9.68;;;6.00;;
37943;SDS011;23767;42.024;23.086;2023-09-19T07:23:10;43.40;;;8.10;;
37943;SDS011;23767;42.024;23.086;2023-09-19T07:25:38;11.82;;;6.88;;
37943;SDS011;23767;42.024;23.086;2023-09-19T07:28:05;8.88;;;6.40;;
37943;SDS011;23767;42.024;23.086;2023-09-19T07:30:31;9.35;;;6.30;;
37943;SDS011;23767;42.024;23.086;2023-09-19T07:32:57;12.07;;;7.07;;
37943;SDS011;23767;42.024;23.086;2023-09-19T07:35:23;11.88;;;7.03;;
37943;SDS011;23767;42.024;23.086;2023-09-19T07:37:50;12.52;;;6.85;;
37943;SDS011;23767;42.024;23.086;2023-09-19T07:40:17;9.32;;;6.78;;
37943;SDS011;23767;42.024;23.086;2023-09-19T07:42:43;10.57;;;6.22;;
37943;SDS011;23767;42.024;23.086;2023-09-19T07:45:11;13.93;;;6.57;;
37943;SDS011;23767;42.024;23.086;2023-09-19T07:47:48;11.95;;;7.47;;
37943;SDS011;23767;42.024;23.086;2023-09-19T07:50:14;12.80;;;6.78;;
37943;SDS011;23767;42.024;23.086;2023-09-19T07:52:41;8.52;;;6.18;;
37943;SDS011;23767;42.024;23.086;2023-09-19T07:55:08;10.63;;;6.70;;
37943;SDS011;23767;42.024;23.086;2023-09-19T07:57:37;8.43;;;6.38;;
37943;SDS011;23767;42.024;23.086;2023-09-19T08:00:03;10.50;;;6.47;;
37943;SDS011;23767;42.024;23.086;2023-09-19T08:02:35;10.60;;;6.57;;
37943;SDS011;23767;42.024;23.086;2023-09-19T08:05:03;7.93;;;6.43;;
37943;SDS011;23767;42.024;23.086;2023-09-19T08:07:32;8.35;;;6.38;;
37943;SDS011;23767;42.024;23.086;2023-09-19T08:09:58;13.55;;;6.55;;
37943;SDS011;23767;42.024;23.086;2023-09-19T08:12:24;11.70;;;6.70;;
37943;SDS011;23767;42.024;23.086;2023-09-19T08:14:50;9.75;;;6.40;;
37943;SDS011;23767;42.024;23.086;2023-09-19T08:17:16;9.35;;;6.43;;
37943;SDS011;23767;42.024;23.086;2023-09-19T08:19:42;9.60;;;6.68;;
37943;SDS011;23767;42.024;23.086;2023-09-19T08:22:11;11.10;;;6.63;;
37943;SDS011;23767;42.024;23.086;2023-09-19T08:24:37;9.82;;;6.05;;
37943;SDS011;23767;42.024;23.086;2023-09-19T08:27:04;9.48;;;6.07;;
37943;SDS011;23767;42.024;23.086;2023-09-19T08:29:32;11.88;;;6.50;;
37943;SDS011;23767;42.024;23.086;2023-09-19T08:32:00;11.55;;;7.10;;
37943;SDS011;23767;42.024;23.086;2023-09-19T08:34:26;11.55;;;5.82;;
37943;SDS011;23767;42.024;23.086;2023-09-19T08:36:53;8.50;;;6.00;;
37943;SDS011;23767;42.024;23.086;2023-09-19T08:39:22;7.85;;;5.82;;
37943;SDS011;23767;42.024;23.086;2023-09-19T08:41:48;8.32;;;6.50;;
37943;SDS011;23767;42.024;23.086;2023-09-19T08:44:14;9.23;;;6.05;;
37943;SDS011;23767;42.024;23.086;2023-09-19T08:46:41;10.60;;;6.25;;
37943;SDS011;23767;42.024;23.086;2023-09-19T08:49:08;10.32;;;6.45;;
37943;SDS011;23767;42.024;23.086;2023-09-19T08:51:40;12.75;;;6.45;;
37943;SDS011;23767;42.024;23.086;2023-09-19T08:54:10;7.15;;;5.72;;
37943;SDS011;23767;42.024;23.086;2023-09-19T08:56:38;11.80;;;6.18;;
37943;SDS011;23767;42.024;23.086;2023-09-19T08:59:05;7.57;;;6.18;;
37943;SDS011;23767;42.024;23.086;2023-09-19T09:01:37;7.78;;;6.07;;
37943;SDS011;23767;42.024;23.086;2023-09-19T09:04:07;9.20;;;6.03;;
37943;SDS011;23767;42.024;23.086;2023-09-19T09:06:38;8.02;;;6.18;;
37943;SDS011;23767;42.024;23.086;2023-09-19T09:09:08;7.35;;;5.72;;
37943;SDS011;23767;42.024;23.086;2023-09-19T09:11:35;10.55;;;6.65;;
37943;SDS011;23767;42.024;23.086;2023-09-19T09:14:05;9.13;;;6.03;;
37943;SDS011;23767;42.024;23.086;2023-09-19T09:16:32;8.88;;;6.97;;
37943;SDS011;23767;42.024;23.086;2023-09-19T09:18:58;8.90;;;5.63;;
37943;SDS011;23767;42.024;23.086;2023-09-19T09:21:25;9.00;;;6.30;;
37943;SDS011;23767;42.024;23.086;2023-09-19T09:23:51;7.07;;;5.35;;
37943;SDS011;23767;42.024;23.086;2023-09-19T09:29:03;8.57;;;5.57;;
37943;SDS011;23767;42.024;23.086;2023-09-19T09:31:29;8.90;;;5.25;;
37943;SDS011;23767;42.024;23.086;2023-09-19T09:33:55;7.50;;;5.63;;
37943;SDS011;23767;42.024;23.086;2023-09-19T09:36:35;9.73;;;6.28;;
37943;SDS011;23767;42.024;23.086;2023-09-19T09:39:01;6.57;;;5.57;;
37943;SDS011;23767;42.024;23.086;2023-09-19T09:41:41;9.73;;;6.15;;
37943;SDS011;23767;42.024;23.086;2023-09-19T09:44:13;8.07;;;5.57;;
37943;SDS011;23767;42.024;23.086;2023-09-19T09:46:44;8.95;;;5.50;;
37943;SDS011;23767;42.024;23.086;2023-09-19T09:49:25;10.77;;;6.70;;
37943;SDS011;23767;42.024;23.086;2023-09-19T09:52:04;11.55;;;6.03;;
37943;SDS011;23767;42.024;23.086;2023-09-19T09:54:32;8.77;;;6.50;;
37943;SDS011;23767;42.024;23.086;2023-09-19T09:57:01;9.65;;;6.10;;
37943;SDS011;23767;42.024;23.086;2023-09-19T09:59:46;9.60;;;5.82;;
37943;SDS011;23767;42.024;23.086;2023-09-19T10:02:45;7.50;;;5.78;;
37943;SDS011;23767;42.024;23.086;2023-09-19T10:05:18;10.10;;;6.38;;
37943;SDS011;23767;42.024;23.086;2023-09-19T10:07:44;9.50;;;5.85;;
37943;SDS011;23767;42.024;23.086;2023-09-19T10:10:29;11.00;;;5.90;;
37943;SDS011;23767;42.024;23.086;2023-09-19T10:13:03;8.60;;;6.30;;
37943;SDS011;23767;42.024;23.086;2023-09-19T10:15:32;7.03;;;5.55;;
37943;SDS011;23767;42.024;23.086;2023-09-19T10:18:01;9.38;;;6.13;;
37943;SDS011;23767;42.024;23.086;2023-09-19T10:20:30;8.93;;;6.10;;
37943;SDS011;23767;42.024;23.086;2023-09-19T10:22:59;11.00;;;6.28;;
37943;SDS011;23767;42.024;23.086;2023-09-19T10:25:26;7.10;;;5.40;;
37943;SDS011;23767;42.024;23.086;2023-09-19T10:27:57;12.65;;;6.80;;
37943;SDS011;23767;42.024;23.086;2023-09-19T10:30:26;8.43;;;5.70;;
37943;SDS011;23767;42.024;23.086;2023-09-19T10:32:57;7.78;;;6.15;;
37943;SDS011;23767;42.024;23.086;2023-09-19T10:35:25;7.07;;;5.30;;
37943;SDS011;23767;42.024;23.086;2023-09-19T10:37:51;7.15;;;5.53;;
37943;SDS011;23767;42.024;23.086;2023-09-19T10:40:19;8.40;;;5.57;;
37943;SDS011;23767;42.024;23.086;2023-09-19T10:42:51;8.35;;;5.82;;
37943;SDS011;23767;42.024;23.086;2023-09-19T10:45:18;8.32;;;5.57;;
37943;SDS011;23767;42.024;23.086;2023-09-19T10:47:45;8.13;;;5.40;;
37943;SDS011;23767;42.024;23.086;2023-09-19T10:50:19;16.50;;;6.13;;
37943;SDS011;23767;42.024;23.086;2023-09-19T10:52:46;8.02;;;5.80;;
37943;SDS011;23767;42.024;23.086;2023-09-19T10:55:18;7.13;;;5.70;;
37943;SDS011;23767;42.024;23.086;2023-09-19T10:57:47;7.65;;;4.72;;
37943;SDS011;23767;42.024;23.086;2023-09-19T11:00:13;6.82;;;5.22;;
37943;SDS011;23767;42.024;23.086;2023-09-19T11:05:34;6.45;;;5.13;;
37943;SDS011;23767;42.024;23.086;2023-09-19T11:08:03;9.68;;;5.50;;
37943;SDS011;23767;42.024;23.086;2023-09-19T11:26:57;7.70;;;5.65;;
37943;SDS011;23767;42.024;23.086;2023-09-19T11:29:34;8.02;;;4.95;;
37943;SDS011;23767;42.024;23.086;2023-09-19T11:32:01;5.60;;;4.70;;
37943;SDS011;23767;42.024;23.086;2023-09-19T11:40:26;11.10;;;4.60;;
37943;SDS011;23767;42.024;23.086;2023-09-19T11:47:57;6.63;;;4.70;;
37943;SDS011;23767;42.024;23.086;2023-09-19T11:50:23;6.18;;;4.68;;
37943;SDS011;23767;42.024;23.086;2023-09-19T11:52:50;9.25;;;4.57;;
37943;SDS011;23767;42.024;23.086;2023-09-19T11:55:17;9.25;;;4.78;;
37943;SDS011;23767;42.024;23.086;2023-09-19T11:57:47;8.43;;;5.15;;
37943;SDS011;23767;42.024;23.086;2023-09-19T12:00:19;6.70;;;4.65;;
37943;SDS011;23767;42.024;23.086;2023-09-19T12:02:46;7.05;;;4.97;;
37943;SDS011;23767;42.024;23.086;2023-09-19T12:05:13;7.13;;;4.70;;
37943;SDS011;23767;42.024;23.086;2023-09-19T12:07:43;7.18;;;4.80;;
37943;SDS011;23767;42.024;23.086;2023-09-19T12:10:12;8.70;;;5.00;;
37943;SDS011;23767;42.024;23.086;2023-09-19T12:12:46;8.05;;;5.13;;
37943;SDS011;23767;42.024;23.086;2023-09-19T12:15:24;6.78;;;4.68;;
37943;SDS011;23767;42.024;23.086;2023-09-19T12:17:59;6.68;;;4.70;;
37943;SDS011;23767;42.024;23.086;2023-09-19T12:20:25;7.88;;;5.03;;
37943;SDS011;23767;42.024;23.086;2023-09-19T12:22:51;7.25;;;4.65;;
37943;SDS011;23767;42.024;23.086;2023-09-19T12:25:17;6.88;;;4.50;;
37943;SDS011;23767;42.024;23.086;2023-09-19T12:27:49;7.82;;;4.75;;
37943;SDS011;23767;42.024;23.086;2023-09-19T12:30:18;9.15;;;5.10;;
37943;SDS011;23767;42.024;23.086;2023-09-19T12:32:47;8.55;;;4.78;;
37943;SDS011;23767;42.024;23.086;2023-09-19T12:35:27;7.03;;;4.70;;
37943;SDS011;23767;42.024;23.086;2023-09-19T12:37:59;8.02;;;4.45;;
37943;SDS011;23767;42.024;23.086;2023-09-19T12:40:26;7.35;;;4.90;;
37943;SDS011;23767;42.024;23.086;2023-09-19T12:42:54;7.68;;;4.60;;
37943;SDS011;23767;42.024;23.086;2023-09-19T12:45:21;9.50;;;5.13;;
37943;SDS011;23767;42.024;23.086;2023-09-19T12:50:33;6.00;;;4.57;;
37943;SDS011;23767;42.024;23.086;2023-09-19T12:52:59;6.00;;;4.30;;
37943;SDS011;23767;42.024;23.086;2023-09-19T12:55:26;6.68;;;4.50;;
37943;SDS011;23767;42.024;23.086;2023-09-19T13:00:44;8.32;;;4.80;;
37943;SDS011;23767;42.024;23.086;2023-09-19T13:03:17;6.68;;;4.80;;
37943;SDS011;23767;42.024;23.086;2023-09-19T13:06:02;8.20;;;4.68;;
37943;SDS011;23767;42.024;23.086;2023-09-19T13:11:02;6.45;;;5.00;;
37943;SDS011;23767;42.024;23.086;2023-09-19T13:13:31;9.13;;;4.70;;
37943;SDS011;23767;42.024;23.086;2023-09-19T13:15:58;8.18;;;4.53;;
37943;SDS011;23767;42.024;23.086;2023-09-19T13:18:26;7.85;;;5.20;;
37943;SDS011;23767;42.024;23.086;2023-09-19T13:21:11;7.20;;;5.40;;
37943;SDS011;23767;42.024;23.086;2023-09-19T13:23:47;7.80;;;5.00;;
37943;SDS011;23767;42.024;23.086;2023-09-19T13:26:13;8.30;;;5.13;;
37943;SDS011;23767;42.024;23.086;2023-09-19T13:28:40;7.35;;;4.85;;
37943;SDS011;23767;42.024;23.086;2023-09-19T13:31:06;8.43;;;4.88;;
37943;SDS011;23767;42.024;23.086;2023-09-19T13:33:33;7.05;;;5.30;;
37943;SDS011;23767;42.024;23.086;2023-09-19T13:36:00;7.90;;;5.35;;
37943;SDS011;23767;42.024;23.086;2023-09-19T13:38:26;10.27;;;5.00;;
37943;SDS011;23767;42.024;23.086;2023-09-19T13:40:53;9.90;;;5.03;;
37943;SDS011;23767;42.024;23.086;2023-09-19T13:43:19;7.25;;;5.05;;
37943;SDS011;23767;42.024;23.086;2023-09-19T13:45:47;6.72;;;5.18;;
37943;SDS011;23767;42.024;23.086;2023-09-19T13:48:13;7.53;;;5.00;;
37943;SDS011;23767;42.024;23.086;2023-09-19T13:50:39;10.25;;;5.50;;
37943;SDS011;23767;42.024;23.086;2023-09-19T13:53:07;7.88;;;4.78;;
37943;SDS011;23767;42.024;23.086;2023-09-19T13:55:34;8.85;;;5.45;;
37943;SDS011;23767;42.024;23.086;2023-09-19T13:58:00;8.32;;;4.82;;
37943;SDS011;23767;42.024;23.086;2023-09-19T14:00:26;10.93;;;5.65;;
37943;SDS011;23767;42.024;23.086;2023-09-19T14:02:53;6.88;;;5.05;;
37943;SDS011;23767;42.024;23.086;2023-09-19T14:05:19;8.52;;;5.50;;
37943;SDS011;23767;42.024;23.086;2023-09-19T14:07:46;8.82;;;5.72;;
37943;SDS011;23767;42.024;23.086;2023-09-19T14:10:12;8.90;;;5.57;;
37943;SDS011;23767;42.024;23.086;2023-09-19T14:12:38;8.25;;;5.32;;
37943;SDS011;23767;42.024;23.086;2023-09-19T14:15:06;9.45;;;5.60;;
37943;SDS011;23767;42.024;23.086;2023-09-19T14:17:33;8.57;;;6.10;;
37943;SDS011;23767;42.024;23.086;2023-09-19T14:19:59;9.40;;;5.85;;
37943;SDS011;23767;42.024;23.086;2023-09-19T14:22:25;10.20;;;6.28;;
37943;SDS011;23767;42.024;23.086;2023-09-19T14:24:51;8.70;;;5.38;;
37943;SDS011;23767;42.024;23.086;2023-09-19T14:27:18;9.27;;;5.80;;
37943;SDS011;23767;42.024;23.086;2023-09-19T14:29:44;10.68;;;6.15;;
37943;SDS011;23767;42.024;23.086;2023-09-19T14:32:10;7.65;;;5.43;;
37943;SDS011;23767;42.024;23.086;2023-09-19T14:34:36;7.72;;;5.53;;
37943;SDS011;23767;42.024;23.086;2023-09-19T14:37:07;8.35;;;6.03;;
37943;SDS011;23767;42.024;23.086;2023-09-19T14:39:33;9.43;;;5.88;;
37943;SDS011;23767;42.024;23.086;2023-09-19T14:41:59;8.13;;;6.20;;
37943;SDS011;23767;42.024;23.086;2023-09-19T14:44:25;9.30;;;6.20;;
37943;SDS011;23767;42.024;23.086;2023-09-19T14:46:51;7.78;;;5.45;;
37943;SDS011;23767;42.024;23.086;2023-09-19T14:49:17;7.22;;;5.60;;
37943;SDS011;23767;42.024;23.086;2023-09-19T14:51:43;6.97;;;5.68;;
37943;SDS011;23767;42.024;23.086;2023-09-19T14:54:10;7.22;;;5.32;;
37943;SDS011;23767;42.024;23.086;2023-09-19T14:56:36;9.02;;;5.75;;
37943;SDS011;23767;42.024;23.086;2023-09-19T14:59:02;9.60;;;6.05;;
37943;SDS011;23767;42.024;23.086;2023-09-19T15:01:28;8.05;;;5.75;;
37943;SDS011;23767;42.024;23.086;2023-09-19T15:03:55;7.88;;;5.10;;
37943;SDS011;23767;42.024;23.086;2023-09-19T15:06:21;9.68;;;6.20;;
37943;SDS011;23767;42.024;23.086;2023-09-19T15:08:47;8.70;;;5.53;;
37943;SDS011;23767;42.024;23.086;2023-09-19T15:11:16;9.15;;;5.68;;
37943;SDS011;23767;42.024;23.086;2023-09-19T15:13:42;6.57;;;5.30;;
37943;SDS011;23767;42.024;23.086;2023-09-19T15:16:09;7.57;;;5.60;;
37943;SDS011;23767;42.024;23.086;2023-09-19T15:18:39;9.05;;;5.35;;
37943;SDS011;23767;42.024;23.086;2023-09-19T15:21:06;8.07;;;5.18;;
37943;SDS011;23767;42.024;23.086;2023-09-19T15:23:33;7.07;;;5.22;;
37943;SDS011;23767;42.024;23.086;2023-09-19T15:26:02;6.38;;;5.22;;
37943;SDS011;23767;42.024;23.086;2023-09-19T15:28:29;7.80;;;5.15;;
37943;SDS011;23767;42.024;23.086;2023-09-19T15:31:00;8.90;;;5.78;;
37943;SDS011;23767;42.024;23.086;2023-09-19T15:33:27;7.60;;;5.30;;
37943;SDS011;23767;42.024;23.086;2023-09-19T15:36:03;6.47;;;5.47;;
37943;SDS011;23767;42.024;23.086;2023-09-19T15:38:29;7.60;;;4.93;;